createdAt,value
2022-08-07T00:02:41.223Z,21.50
2022-08-07T00:04:53.631Z,21.49
2022-08-07T00:07:20.079Z,21.48
2022-08-07T00:09:59.220Z,21.46
2022-08-07T00:12:33.892Z,21.44
2022-08-07T00:15:00.402Z,21.43
2022-08-07T00:17:26.924Z,21.41
2022-08-07T00:20:01.379Z,21.39
2022-08-07T00:22:35.073Z,21.37
2022-08-07T00:25:02.740Z,21.36
2022-08-07T00:27:35.883Z,21.34
2022-08-07T00:30:26.810Z,21.32
2022-08-07T00:32:54.849Z,21.31
2022-08-07T00:35:21.259Z,21.30
2022-08-07T00:37:49.616Z,21.27
2022-08-07T00:40:17.668Z,21.25
2022-08-07T00:43:04.159Z,21.24
2022-08-07T00:45:36.368Z,21.22
2022-08-07T00:48:10.277Z,21.20
2022-08-07T00:50:46.256Z,21.18
2022-08-07T00:53:17.887Z,21.17
2022-08-07T00:55:46.512Z,21.15
2022-08-07T00:58:28.772Z,21.11
2022-08-07T01:00:55.076Z,21.10
2022-08-07T01:03:25.481Z,21.08
2022-08-07T01:06:08.203Z,21.05
2022-08-07T01:08:34.594Z,21.06
2022-08-07T01:11:00.907Z,21.03
2022-08-07T01:13:55.933Z,21.01
2022-08-07T01:16:30.385Z,21.00
2022-08-07T01:18:57.373Z,20.97
2022-08-07T01:21:26.082Z,20.96
2022-08-07T01:23:53.682Z,20.95
2022-08-07T01:26:20.321Z,20.93
2022-08-07T01:28:48.320Z,20.91
2022-08-07T01:31:15.504Z,20.92
2022-08-07T01:33:55.191Z,20.90
2022-08-07T01:36:22.915Z,20.87
2022-08-07T01:39:01.377Z,20.85
2022-08-07T01:41:30.568Z,20.82
2022-08-07T01:44:00.633Z,20.80
2022-08-07T01:46:29.420Z,20.78
2022-08-07T01:48:57.597Z,20.75
2022-08-07T01:52:01.561Z,20.72
2022-08-07T01:54:33.092Z,20.70
2022-08-07T01:56:59.149Z,20.68
2022-08-07T01:59:31.137Z,20.68
2022-08-07T02:02:01.915Z,20.65
2022-08-07T02:04:30.330Z,20.63
2022-08-07T02:06:56.767Z,20.63
2022-08-07T02:09:33.963Z,20.60
2022-08-07T02:12:09.698Z,20.58
2022-08-07T02:14:40.830Z,20.55
2022-08-07T02:17:07.484Z,20.54
2022-08-07T02:20:07.583Z,20.53
2022-08-07T02:22:20.174Z,20.50
2022-08-07T02:24:46.909Z,20.48
2022-08-07T02:27:15.140Z,20.46
2022-08-07T02:29:48.774Z,20.43
2022-08-07T02:32:23.405Z,20.42
2022-08-07T02:34:53.277Z,20.42
2022-08-07T02:37:19.884Z,20.38
2022-08-07T02:40:02.483Z,20.35
2022-08-07T02:42:32.656Z,20.34
2022-08-07T02:44:59.216Z,20.32
2022-08-07T02:47:25.796Z,20.31
2022-08-07T02:49:59.028Z,20.29
2022-08-07T02:52:31.223Z,20.28
2022-08-07T02:54:58.636Z,20.26
2022-08-07T02:57:24.917Z,20.26
2022-08-07T03:00:01.334Z,20.24
2022-08-07T03:02:31.502Z,20.22
2022-08-07T03:04:59.191Z,20.19
2022-08-07T03:07:58.863Z,20.21
2022-08-07T03:10:11.936Z,20.18
2022-08-07T03:12:40.645Z,20.14
2022-08-07T03:15:07.506Z,20.14
2022-08-07T03:17:36.347Z,20.12
2022-08-07T03:20:20.460Z,20.10
2022-08-07T03:22:50.178Z,20.08
2022-08-07T03:25:16.770Z,20.07
2022-08-07T03:27:59.262Z,20.04
2022-08-07T03:30:33.872Z,20.01
2022-08-07T03:33:00.963Z,20.00
2022-08-07T03:35:27.603Z,19.98
2022-08-07T03:38:10.593Z,19.97
2022-08-07T03:40:39.829Z,19.95
2022-08-07T03:43:14.484Z,19.92
2022-08-07T03:45:43.371Z,19.91
2022-08-07T03:48:13.713Z,19.90
2022-08-07T03:50:40.102Z,19.88
2022-08-07T03:53:18.673Z,19.87
2022-08-07T03:56:04.059Z,19.85
2022-08-07T03:59:06.776Z,19.82
2022-08-07T04:01:17.937Z,19.78
2022-08-07T04:03:53.431Z,19.77
2022-08-07T04:06:36.095Z,19.76
2022-08-07T04:09:03.377Z,19.75
2022-08-07T04:12:21.397Z,19.74
2022-08-07T04:14:38.114Z,19.74
2022-08-07T04:17:03.331Z,19.74
2022-08-07T04:19:50.934Z,19.74
2022-08-07T04:22:17.679Z,19.72
2022-08-07T04:24:44.265Z,19.72
2022-08-07T04:27:20.426Z,19.70
2022-08-07T04:29:58.967Z,19.70
2022-08-07T04:32:34.514Z,19.69
2022-08-07T04:35:01.400Z,19.69
2022-08-07T04:37:30.512Z,19.69
2022-08-07T04:40:16.806Z,19.68
2022-08-07T04:42:46.328Z,19.66
2022-08-07T04:45:44.466Z,19.66
2022-08-07T04:48:09.990Z,19.68
2022-08-07T04:50:37.116Z,19.71
2022-08-07T04:53:03.440Z,19.74
2022-08-07T04:58:16.823Z,19.83
2022-08-07T04:58:42.367Z,19.99
2022-08-07T05:01:02.796Z,20.27
2022-08-07T05:04:00.086Z,20.42
2022-08-07T05:06:19.807Z,20.53
2022-08-07T05:09:01.258Z,20.61
2022-08-07T05:11:58.109Z,20.72
2022-08-07T05:14:55.213Z,20.87
2022-08-07T05:17:01.177Z,21.00
2022-08-07T05:19:44.151Z,21.11
2022-08-07T05:22:11.770Z,21.24
2022-08-07T05:24:39.727Z,21.36
2022-08-07T05:28:01.874Z,21.47
2022-08-07T05:29:57.758Z,21.61
2022-08-07T05:32:25.350Z,21.73
2022-08-07T05:34:51.734Z,21.87
2022-08-07T05:37:26.409Z,22.01
2022-08-07T05:40:17.253Z,22.18
2022-08-07T05:42:39.528Z,22.32
2022-08-07T05:48:02.057Z,22.61
2022-08-07T05:50:29.199Z,22.77
2022-08-07T05:52:55.710Z,22.89
2022-08-07T05:55:22.285Z,23.03
2022-08-07T05:57:49.221Z,23.16
2022-08-07T06:00:17.833Z,23.29
2022-08-07T06:02:44.322Z,23.43
2022-08-07T06:05:15.621Z,23.58
2022-08-07T06:08:14.974Z,23.71
2022-08-07T06:10:28.952Z,23.87
2022-08-07T06:12:58.873Z,24.00
2022-08-07T06:15:42.043Z,24.13
2022-08-07T06:18:09.260Z,24.28
2022-08-07T06:20:50.847Z,24.44
2022-08-07T06:24:37.217Z,24.59
2022-08-07T06:26:12.118Z,24.74
2022-08-07T06:28:39.048Z,24.86
2022-08-07T06:31:07.086Z,25.03
2022-08-07T06:33:33.541Z,25.19
2022-08-07T06:36:13.488Z,25.35
2022-08-07T06:38:59.390Z,25.50
2022-08-07T06:42:00.702Z,25.66
2022-08-07T06:44:13.397Z,25.82
2022-08-07T06:46:42.605Z,25.95
2022-08-07T06:49:08.979Z,26.08
2022-08-07T06:51:36.204Z,26.20
2022-08-07T06:55:33.327Z,26.37
2022-08-07T06:57:02.521Z,26.54
2022-08-07T07:00:14.349Z,26.69
2022-08-07T07:02:15.691Z,26.79
2022-08-07T07:05:02.052Z,26.92
2022-08-07T07:08:00.409Z,27.05
2022-08-07T07:10:14.948Z,27.20
2022-08-07T07:12:48.532Z,27.37
2022-08-07T07:15:24.050Z,27.51
2022-08-07T07:17:52.772Z,27.67
2022-08-07T07:20:21.100Z,27.82
2022-08-07T07:24:09.034Z,27.97
2022-08-07T07:26:35.223Z,28.10
2022-08-07T07:28:42.669Z,28.25
2022-08-07T07:31:07.092Z,28.41
2022-08-07T07:33:33.820Z,28.50
2022-08-07T07:36:04.836Z,28.60
2022-08-07T07:38:32.151Z,28.73
2022-08-07T07:41:02.144Z,28.89
2022-08-07T07:44:14.401Z,29.06
2022-08-07T07:46:36.835Z,29.24
2022-08-07T07:50:29.727Z,29.41
2022-08-07T07:51:57.867Z,29.59
2022-08-07T07:54:26.325Z,29.76
2022-08-07T07:56:52.923Z,29.93
2022-08-07T07:59:23.879Z,30.10
2022-08-07T08:02:10.986Z,30.31
2022-08-07T08:04:50.486Z,30.53
2022-08-07T08:07:20.148Z,30.72
2022-08-07T08:09:52.570Z,30.93
2022-08-07T08:12:52.327Z,31.18
2022-08-07T08:15:18.442Z,31.39
2022-08-07T08:17:57.912Z,31.58
2022-08-07T08:20:31.946Z,31.78
2022-08-07T08:22:58.856Z,31.99
2022-08-07T08:25:41.998Z,32.18
2022-08-07T08:28:09.411Z,32.34
2022-08-07T08:30:42.516Z,32.51
2022-08-07T08:33:10.337Z,32.65
2022-08-07T08:35:47.024Z,32.79
2022-08-07T08:38:17.255Z,32.89
2022-08-07T08:40:43.889Z,32.99
2022-08-07T08:43:13.255Z,33.07
2022-08-07T08:45:59.459Z,33.09
2022-08-07T08:48:28.495Z,32.99
2022-08-07T08:50:59.094Z,32.84
2022-08-07T08:53:30.318Z,32.70
2022-08-07T08:55:58.635Z,32.55
2022-08-07T08:58:28.918Z,32.42
2022-08-07T09:00:56.465Z,32.30
2022-08-07T09:03:23.525Z,32.02
2022-08-07T09:06:11.367Z,31.41
2022-08-07T09:08:39.268Z,30.27
2022-08-07T09:11:05.769Z,29.61
2022-08-07T09:13:38.004Z,29.34
2022-08-07T09:16:23.996Z,29.20
2022-08-07T09:18:53.200Z,29.08
2022-08-07T09:21:33.751Z,29.01
2022-08-07T09:24:49.233Z,28.93
2022-08-07T09:26:57.699Z,28.84
2022-08-07T09:30:03.265Z,28.78
2022-08-07T09:32:20.917Z,28.74
2022-08-07T09:34:53.936Z,28.71
2022-08-07T09:37:20.812Z,28.58
2022-08-07T09:40:07.411Z,28.52
2022-08-07T09:42:35.342Z,28.44
2022-08-07T09:47:24.038Z,28.39
2022-08-07T09:48:00.384Z,28.26
2022-08-07T09:50:30.543Z,28.16
2022-08-07T09:52:58.509Z,28.17
2022-08-07T09:55:29.591Z,28.16
2022-08-07T09:58:03.551Z,28.07
2022-08-07T10:00:32.014Z,28.06
2022-08-07T10:02:58.554Z,28.07
2022-08-07T10:05:59.200Z,28.04
2022-08-07T10:08:21.705Z,27.98
2022-08-07T10:14:00.553Z,27.96
2022-08-07T10:16:25.063Z,27.95
2022-08-07T10:18:54.407Z,27.98
2022-08-07T10:22:12.481Z,27.97
2022-08-07T10:24:08.661Z,27.93
2022-08-07T10:26:36.496Z,27.87
2022-08-07T10:29:03.112Z,27.87
2022-08-07T10:31:31.409Z,27.87
2022-08-07T10:34:06.111Z,27.86
2022-08-07T10:36:40.530Z,27.80
2022-08-07T10:39:07.321Z,27.74
2022-08-07T10:41:52.893Z,27.63
2022-08-07T10:44:28.373Z,27.58
2022-08-07T10:47:05.786Z,27.39
2022-08-07T10:49:49.606Z,27.46
2022-08-07T10:52:17.676Z,27.39
2022-08-07T10:55:00.848Z,27.35
2022-08-07T10:57:34.315Z,27.36
2022-08-07T11:00:01.505Z,27.40
2022-08-07T11:02:34.004Z,27.39
2022-08-07T11:05:08.561Z,27.40
2022-08-07T11:07:59.683Z,27.36
2022-08-07T11:10:24.221Z,27.29
2022-08-07T11:13:01.558Z,27.25
2022-08-07T11:15:31.963Z,27.21
2022-08-07T11:18:03.639Z,27.19
2022-08-07T11:20:31.129Z,27.23
2022-08-07T11:22:57.438Z,27.19
2022-08-07T11:25:23.785Z,27.16
2022-08-07T11:28:03.085Z,27.11
2022-08-07T11:30:41.941Z,27.07
2022-08-07T11:33:14.988Z,27.04
2022-08-07T11:36:00.239Z,26.98
2022-08-07T11:38:28.353Z,26.97
2022-08-07T11:40:56.096Z,26.96
2022-08-07T11:43:41.560Z,26.88
2022-08-07T11:46:08.870Z,26.87
2022-08-07T11:48:35.709Z,26.84
2022-08-07T11:51:04.362Z,26.82
2022-08-07T11:53:35.631Z,26.84
2022-08-07T11:56:09.480Z,26.83
2022-08-07T11:58:49.781Z,26.85
2022-08-07T12:01:20.159Z,26.86
2022-08-07T12:03:48.537Z,26.86
2022-08-07T12:06:36.307Z,26.86
2022-08-07T12:09:01.692Z,26.87
2022-08-07T12:11:32.461Z,26.88
2022-08-07T12:13:59.124Z,26.88
2022-08-07T12:16:30.451Z,26.89
2022-08-07T12:18:57.683Z,26.90
2022-08-07T12:21:55.648Z,26.90
2022-08-07T12:24:37.703Z,26.91
2022-08-07T12:27:00.092Z,26.91
2022-08-07T12:29:38.016Z,26.91
2022-08-07T12:32:12.087Z,26.91
2022-08-07T12:34:39.125Z,26.88
2022-08-07T12:37:08.173Z,26.87
2022-08-07T12:39:42.098Z,26.88
2022-08-07T12:42:10.403Z,26.86
2022-08-07T12:44:39.554Z,26.87
2022-08-07T12:47:09.468Z,26.86
2022-08-07T12:49:44.316Z,26.87
2022-08-07T12:52:19.268Z,26.87
2022-08-07T12:54:54.914Z,26.86
2022-08-07T12:57:23.114Z,26.84
2022-08-07T12:59:54.995Z,26.84
2022-08-07T13:02:22.146Z,26.83
2022-08-07T13:05:02.307Z,26.84
2022-08-07T13:08:14.139Z,26.83
2022-08-07T13:10:28.502Z,26.82
2022-08-07T13:13:02.520Z,26.80
2022-08-07T13:15:29.682Z,26.80
2022-08-07T13:17:59.555Z,26.79
2022-08-07T13:20:27.740Z,26.78
2022-08-07T13:22:55.560Z,26.78
2022-08-07T13:25:28.834Z,26.77
2022-08-07T13:28:11.236Z,26.77
2022-08-07T13:30:48.676Z,26.77
2022-08-07T13:34:31.620Z,26.77
2022-08-07T13:36:05.907Z,26.76
2022-08-07T13:38:32.799Z,26.74
2022-08-07T13:41:00.341Z,26.74
2022-08-07T13:43:26.736Z,26.74
2022-08-07T13:46:12.897Z,26.74
2022-08-07T13:48:40.747Z,26.73
2022-08-07T13:51:27.721Z,26.71
2022-08-07T13:53:59.732Z,26.72
2022-08-07T13:56:36.202Z,26.71
2022-08-07T13:59:12.026Z,26.72
2022-08-07T14:01:51.153Z,26.72
2022-08-07T14:04:29.766Z,26.71
2022-08-07T14:06:59.079Z,26.70
2022-08-07T14:10:00.890Z,26.71
2022-08-07T14:12:14.291Z,26.66
2022-08-07T14:14:47.400Z,26.66
2022-08-07T14:17:51.488Z,26.66
2022-08-07T14:20:41.016Z,26.66
2022-08-07T14:25:39.509Z,26.62
2022-08-07T14:28:13.771Z,26.60
2022-08-07T14:30:40.622Z,26.60
2022-08-07T14:33:07.367Z,26.61
2022-08-07T14:35:45.487Z,26.60
2022-08-07T14:38:26.482Z,26.59
2022-08-07T14:40:57.491Z,26.58
2022-08-07T14:43:59.119Z,26.59
2022-08-07T14:46:11.077Z,26.57
2022-08-07T14:48:44.081Z,26.57
2022-08-07T14:51:15.851Z,26.56
2022-08-07T14:56:30.207Z,26.52
2022-08-07T14:58:57.059Z,26.51
2022-08-07T15:01:23.453Z,26.52
2022-08-07T15:03:52.512Z,26.51
2022-08-07T15:06:19.927Z,26.52
2022-08-07T15:08:47.449Z,26.50
2022-08-07T15:11:16.737Z,26.50
2022-08-07T15:14:09.867Z,26.49
2022-08-07T15:16:37.361Z,26.48
2022-08-07T15:20:31.500Z,26.47
2022-08-07T15:22:29.070Z,26.46
2022-08-07T15:25:14.181Z,26.45
2022-08-07T15:28:32.452Z,26.44
2022-08-07T15:30:34.569Z,26.44
2022-08-07T15:33:05.533Z,26.43
2022-08-07T15:36:01.970Z,26.42
2022-08-07T15:38:59.361Z,26.42
2022-08-07T15:41:24.356Z,26.41
2022-08-07T15:44:07.146Z,26.40
2022-08-07T15:46:38.316Z,26.39
2022-08-07T15:49:14.236Z,26.38
2022-08-07T15:54:24.418Z,26.36
2022-08-07T15:56:53.002Z,26.36
2022-08-07T15:59:39.467Z,26.36
2022-08-07T16:02:09.038Z,26.34
2022-08-07T16:04:35.624Z,26.33
2022-08-07T16:07:04.597Z,26.33
2022-08-07T16:09:40.943Z,26.33
2022-08-07T16:12:12.018Z,26.32
2022-08-07T16:14:39.016Z,26.31
2022-08-07T16:17:15.918Z,26.31
2022-08-07T16:19:58.910Z,26.30
2022-08-07T16:22:33.683Z,26.29
2022-08-07T16:25:02.666Z,26.27
2022-08-07T16:27:39.931Z,26.28
2022-08-07T16:30:30.198Z,26.26
2022-08-07T16:32:54.974Z,26.25
2022-08-07T16:35:52.132Z,26.25
2022-08-07T16:38:09.490Z,26.23
2022-08-07T16:40:51.147Z,26.22
2022-08-07T16:43:24.195Z,26.22
2022-08-07T16:47:05.973Z,26.21
2022-08-07T16:50:28.507Z,26.19
2022-08-07T16:51:57.872Z,26.18
2022-08-07T16:54:34.900Z,26.17
2022-08-07T16:57:01.213Z,26.16
2022-08-07T16:59:46.422Z,26.15
2022-08-07T17:02:13.729Z,26.14
2022-08-07T17:04:59.983Z,26.13
2022-08-07T17:07:28.424Z,26.12
2022-08-07T17:10:30.393Z,26.11
2022-08-07T17:13:04.075Z,26.00
2022-08-07T17:15:44.594Z,26.08
2022-08-07T17:18:17.293Z,26.07
2022-08-07T17:20:46.443Z,26.06
2022-08-07T17:23:14.004Z,26.04
2022-08-07T17:25:51.431Z,26.03
2022-08-07T17:28:19.557Z,26.01
2022-08-07T17:30:58.174Z,26.00
2022-08-07T17:34:08.467Z,26.00
2022-08-07T17:36:20.029Z,25.97
2022-08-07T17:38:47.042Z,25.97
2022-08-07T17:42:03.934Z,25.93
2022-08-07T17:44:05.828Z,25.92
2022-08-07T17:46:34.805Z,25.91
2022-08-07T17:49:01.152Z,25.89
2022-08-07T17:51:59.661Z,25.88
2022-08-07T17:54:29.838Z,25.86
2022-08-07T17:57:18.487Z,25.85
2022-08-07T17:59:45.813Z,25.83
2022-08-07T18:02:17.284Z,25.81
2022-08-07T18:04:49.945Z,25.79
2022-08-07T18:07:19.972Z,25.76
2022-08-07T18:10:06.470Z,25.75
2022-08-07T18:12:36.694Z,25.74
2022-08-07T18:15:08.659Z,25.73
2022-08-07T18:18:47.270Z,25.70
2022-08-07T18:21:04.548Z,25.69
2022-08-07T18:23:42.004Z,25.67
2022-08-07T18:26:01.952Z,25.64
2022-08-07T18:28:35.739Z,25.62
2022-08-07T18:31:03.221Z,25.60
2022-08-07T18:33:29.584Z,25.58
2022-08-07T18:35:57.376Z,25.54
2022-08-07T18:38:56.014Z,25.52
2022-08-07T18:41:17.059Z,25.50
2022-08-07T18:43:48.933Z,25.48
2022-08-07T18:46:25.331Z,25.45
2022-08-07T18:50:18.851Z,25.43
2022-08-07T18:52:38.844Z,25.39
2022-08-07T18:54:30.733Z,25.36
2022-08-07T18:57:06.173Z,25.34
2022-08-07T18:59:47.884Z,25.32
2022-08-07T19:02:34.403Z,25.28
2022-08-07T19:05:15.093Z,25.25
2022-08-07T19:07:51.922Z,25.23
2022-08-07T19:10:23.595Z,25.20
2022-08-07T19:13:12.109Z,25.14
2022-08-07T19:16:05.362Z,25.06
2022-08-07T19:18:34.471Z,24.98
2022-08-07T19:21:09.589Z,24.92
2022-08-07T19:23:59.479Z,24.87
2022-08-07T19:26:29.299Z,24.82
2022-08-07T19:30:54.736Z,24.77
2022-08-07T19:32:07.864Z,24.72
2022-08-07T19:34:38.618Z,24.66
2022-08-07T19:37:17.031Z,24.61
2022-08-07T19:39:57.389Z,24.57
2022-08-07T19:42:30.235Z,24.50
2022-08-07T19:45:09.386Z,24.44
2022-08-07T19:47:37.360Z,24.38
2022-08-07T19:50:43.940Z,24.33
2022-08-07T19:52:58.918Z,24.27
2022-08-07T19:55:26.006Z,24.22
2022-08-07T19:58:15.948Z,24.16
2022-08-07T20:00:53.038Z,24.12
2022-08-07T20:03:34.054Z,24.07
2022-08-07T20:06:03.247Z,24.02
2022-08-07T20:08:30.123Z,23.95
2022-08-07T20:10:56.576Z,23.91
2022-08-07T20:13:32.071Z,23.85
2022-08-07T20:15:58.854Z,23.79
2022-08-07T20:18:32.945Z,23.74
2022-08-07T20:21:00.170Z,23.68
2022-08-07T20:23:41.768Z,23.67
2022-08-07T20:26:11.145Z,23.63
2022-08-07T20:28:37.561Z,23.60
2022-08-07T20:31:05.441Z,23.55
2022-08-07T20:33:37.882Z,23.53
2022-08-07T20:36:04.854Z,23.48
2022-08-07T20:38:33.040Z,23.44
2022-08-07T20:41:03.867Z,23.40
2022-08-07T20:43:32.052Z,23.36
2022-08-07T20:46:24.592Z,23.31
2022-08-07T20:49:00.761Z,23.27
2022-08-07T20:51:31.463Z,23.22
2022-08-07T20:54:08.718Z,23.19
2022-08-07T20:56:38.231Z,23.16
2022-08-07T21:00:04.797Z,23.13
2022-08-07T21:01:55.254Z,23.09
2022-08-07T21:04:24.804Z,23.06
2022-08-07T21:06:53.447Z,23.02
2022-08-07T21:09:24.699Z,22.99
2022-08-07T21:11:54.686Z,22.95
2022-08-07T21:14:33.156Z,22.92
2022-08-07T21:18:00.399Z,22.89
2022-08-07T21:19:51.730Z,22.85
2022-08-07T21:22:33.379Z,22.81
2022-08-07T21:24:59.931Z,22.78
2022-08-07T21:27:39.938Z,22.75
2022-08-07T21:30:13.745Z,22.71
2022-08-07T21:32:42.939Z,22.68
2022-08-07T21:35:14.590Z,22.66
2022-08-07T21:37:58.032Z,22.65
2022-08-07T21:40:26.337Z,22.65
2022-08-07T21:42:53.554Z,22.64
2022-08-07T21:46:09.100Z,22.63
2022-08-07T21:48:06.620Z,22.61
2022-08-07T21:50:53.070Z,22.60
2022-08-07T21:53:20.232Z,22.59
2022-08-07T21:55:49.078Z,22.60
2022-08-07T21:58:32.450Z,22.58
2022-08-07T22:00:59.405Z,22.57
2022-08-07T22:03:31.384Z,22.56
2022-08-07T22:05:58.343Z,22.54
2022-08-07T22:08:24.895Z,22.54
2022-08-07T22:10:51.343Z,22.51
2022-08-07T22:13:24.167Z,22.49
2022-08-07T22:16:41.977Z,22.48
2022-08-07T22:18:50.736Z,22.46
2022-08-07T22:21:19.274Z,22.43
2022-08-07T22:23:46.813Z,22.43
2022-08-07T22:26:13.256Z,22.39
2022-08-07T22:28:39.688Z,22.38
2022-08-07T22:31:07.736Z,22.37
2022-08-07T22:33:37.062Z,22.34
2022-08-07T22:36:20.704Z,22.33
2022-08-07T22:38:47.932Z,22.31
2022-08-07T22:41:14.750Z,22.29
2022-08-07T22:43:41.134Z,22.27
2022-08-07T22:46:43.117Z,22.26
2022-08-07T22:49:02.286Z,22.24
2022-08-07T22:51:36.749Z,22.23
2022-08-07T22:54:07.672Z,22.22
2022-08-07T22:56:35.269Z,22.21
2022-08-07T22:59:01.669Z,22.19
2022-08-07T23:01:42.156Z,22.17
2022-08-07T23:04:16.676Z,22.17
2022-08-07T23:06:43.802Z,22.16
2022-08-07T23:10:04.410Z,22.12
2022-08-07T23:12:04.758Z,22.11
2022-08-07T23:14:31.128Z,22.11
2022-08-07T23:16:58.339Z,22.09
2022-08-07T23:19:38.983Z,22.08
2022-08-07T23:22:11.698Z,22.06
2022-08-07T23:24:45.694Z,22.04
2022-08-07T23:27:14.090Z,22.02
2022-08-07T23:29:43.539Z,22.00
2022-08-07T23:34:19.355Z,21.98
2022-08-07T23:35:13.585Z,21.97
2022-08-07T23:38:01.410Z,21.94
2022-08-07T23:40:28.475Z,21.93
2022-08-07T23:42:55.103Z,21.92
2022-08-07T23:45:33.199Z,21.91
2022-08-07T23:48:07.817Z,21.90
2022-08-07T23:50:36.845Z,21.87
2022-08-07T23:53:08.314Z,21.87
2022-08-07T23:55:52.122Z,21.85
2022-08-07T23:58:21.761Z,21.84
